トロンハイム の空港の天気 - METARとTAF

Trondheim / Vaernes ( ENVA / TRD ) - ノルウェー ヌール・トロンデラーグ県、Stjordal
飛行場実況気象(Metar)
観測時間06/17 21:20 CEST (06/17 19:20 UTC)
風向・風速東 3m/s
視程10km以上
天気現象
なし
気温16℃
湿度63%
気圧1009hPa
METARENVA 171920Z 10006KT CAVOK 16/09 Q1009 NOSIG RMK WIND 670FT 05007KT
過去の天気等 Google飛行場航空写真 Wunderground天気予報

過去48時間のMETAR

飛行場予報(TAF)
発表時間: -
17日20時 CEST ~ 18日17時 CEST に一時的に
風向・風速西 6m/s
18日0時 CEST ~ 18日11時 CEST に一時的に
天気現象しゅう雨
全天の4割程度の積乱雲 雲底高度 610m
全天の8割程度の雲 雲底高度 910m
18日13時 CEST ~ 18日20時 CEST に一時的に
天気現象しゅう雨
全天の4割程度の雲 雲底高度 300m
全天の8割程度の積乱雲 雲底高度 610m
18日14時 CEST ~ 18日20時 CEST に 確率 30% で一時的に
天気現象雷雨
全天の8割程度の積乱雲 雲底高度 370m
18日17時 CEST ~ 18日20時 CEST に徐々に
風向・風速北北西 5m/s
TAF ENVA 1718/1818 VRB05KT 9999 FEW020 SCT050
TEMPO 1718/1815 28012KT
TEMPO 1722/1809 SHRA SCT020CB BKN030
TEMPO 1811/1818 SHRA SCT010 BKN020CB
PROB30 TEMPO 1812/1818 TSRA BKN012CB
BECMG 1815/1818 34010KT